createdAt,value
2018-08-11T00:00:38.534Z,59.86
2018-08-11T00:01:38.599Z,59.76
2018-08-11T00:02:38.682Z,59.76
2018-08-11T00:03:38.734Z,59.66
2018-08-11T00:04:38.794Z,59.76
2018-08-11T00:05:38.857Z,60.43
2018-08-11T00:06:38.925Z,59.66
2018-08-11T00:07:38.994Z,59.76
2018-08-11T00:08:39.066Z,60.53
2018-08-11T00:09:39.122Z,60.05
2018-08-11T00:10:39.186Z,60.05
2018-08-11T00:11:39.250Z,60.24
2018-08-11T00:12:39.469Z,60.31
2018-08-11T00:13:39.382Z,60.34
2018-08-11T00:14:39.446Z,60.50
2018-08-11T00:15:39.510Z,60.14
2018-08-11T00:16:39.574Z,60.63
2018-08-11T00:17:39.649Z,59.64
2018-08-11T00:18:39.714Z,59.66
2018-08-11T00:19:39.774Z,60.82
2018-08-11T00:20:39.841Z,60.53
2018-08-11T00:21:39.902Z,59.86
2018-08-11T00:22:39.974Z,60.82
2018-08-11T00:23:40.040Z,60.82
2018-08-11T00:24:40.098Z,60.24
2018-08-11T00:25:40.162Z,60.05
2018-08-11T00:26:40.226Z,60.24
2018-08-11T00:27:40.310Z,61.01
2018-08-11T00:28:40.358Z,61.20
2018-08-11T00:29:40.427Z,61.01
2018-08-11T00:30:40.487Z,60.91
2018-08-11T00:31:40.551Z,60.24
2018-08-11T00:32:40.622Z,60.14
2018-08-11T00:33:40.695Z,60.63
2018-08-11T00:34:40.747Z,60.24
2018-08-11T00:35:40.811Z,60.14
2018-08-11T00:36:40.879Z,61.40
2018-08-11T00:37:40.951Z,61.11
2018-08-11T00:38:41.015Z,60.53
2018-08-11T00:39:41.075Z,60.43
2018-08-11T00:40:41.139Z,61.01
2018-08-11T00:41:41.203Z,61.11
2018-08-11T00:42:41.419Z,61.11
2018-08-11T00:43:41.339Z,60.82
2018-08-11T00:44:41.399Z,60.63
2018-08-11T00:45:41.467Z,61.01
2018-08-11T00:46:41.531Z,61.49
2018-08-11T00:47:41.599Z,61.40
2018-08-11T00:48:41.668Z,61.68
2018-08-11T00:49:41.724Z,61.58
2018-08-11T00:50:41.792Z,61.78
2018-08-11T00:51:41.857Z,61.68
2018-08-11T00:52:41.928Z,61.11
2018-08-11T00:53:41.991Z,61.30
2018-08-11T00:54:42.051Z,61.20
2018-08-11T00:55:42.118Z,61.20
2018-08-11T00:56:42.179Z,61.20
2018-08-11T00:57:42.399Z,61.11
2018-08-11T00:58:42.311Z,61.20
2018-08-11T00:59:42.375Z,61.11
2018-08-11T01:00:42.440Z,60.72
2018-08-11T01:01:42.508Z,61.11
2018-08-11T01:02:42.580Z,61.20
2018-08-11T01:03:42.644Z,61.30
2018-08-11T01:04:42.704Z,60.85
2018-08-11T01:05:42.768Z,60.66
2018-08-11T01:06:42.832Z,60.27
2018-08-11T01:07:42.904Z,61.23
2018-08-11T01:08:42.968Z,61.30
2018-08-11T01:09:43.028Z,61.11
2018-08-11T01:10:43.093Z,61.52
2018-08-11T01:11:43.156Z,61.40
2018-08-11T01:12:43.232Z,61.20
2018-08-11T01:13:43.310Z,61.40
2018-08-11T01:14:43.356Z,60.91
2018-08-11T01:15:43.420Z,61.43
2018-08-11T01:16:43.484Z,61.52
2018-08-11T01:17:43.548Z,65.91
2018-08-11T01:18:43.621Z,68.31
2018-08-11T01:19:43.688Z,70.72
2018-08-11T01:20:43.740Z,70.90
2018-08-11T01:21:43.812Z,71.96
2018-08-11T01:22:43.877Z,73.31
2018-08-11T01:23:43.945Z,75.32
2018-08-11T01:24:44.013Z,76.92
2018-08-11T01:25:44.069Z,77.50
2018-08-11T01:26:44.136Z,80.09
2018-08-11T01:27:44.206Z,81.43
2018-08-11T01:28:44.421Z,82.97
2018-08-11T01:29:44.329Z,83.84
2018-08-11T01:30:44.401Z,84.85
2018-08-11T01:31:44.461Z,87.15
2018-08-11T01:32:44.525Z,88.64
2018-08-11T01:33:44.597Z,89.60
2018-08-11T01:34:44.663Z,91.76
2018-08-11T01:35:44.721Z,91.47
2018-08-11T01:36:44.785Z,92.91
2018-08-11T01:37:44.849Z,93.20
2018-08-11T01:38:44.921Z,93.39
2018-08-11T01:39:44.985Z,93.59
2018-08-11T01:40:45.045Z,93.77
2018-08-11T01:41:45.110Z,94.26
2018-08-11T01:42:45.178Z,94.93
2018-08-11T01:43:45.244Z,95.60
2018-08-11T01:44:45.561Z,94.88
2018-08-11T01:45:45.369Z,93.15
2018-08-11T01:46:45.438Z,92.48
2018-08-11T01:47:45.497Z,92.10
2018-08-11T01:48:45.566Z,91.81
2018-08-11T01:49:45.640Z,92.19
2018-08-11T01:50:45.701Z,93.54
2018-08-11T01:51:45.758Z,93.82
2018-08-11T01:52:45.923Z,93.21
2018-08-11T01:53:45.890Z,92.82
2018-08-11T01:54:45.962Z,93.59
2018-08-11T01:55:46.026Z,93.01
2018-08-11T01:56:46.082Z,93.49
2018-08-11T01:57:46.150Z,93.78
2018-08-11T01:58:46.214Z,94.26
2018-08-11T01:59:46.430Z,95.21
2018-08-11T02:00:46.342Z,96.47
2018-08-11T02:01:46.406Z,97.23
2018-08-11T02:02:46.475Z,97.61
2018-08-11T02:03:46.539Z,97.76
2018-08-11T02:04:46.610Z,97.66
2018-08-11T02:05:46.678Z,99.24
2018-08-11T02:06:46.730Z,99.91
2018-08-11T02:07:46.794Z,99.99
2018-08-11T02:08:46.859Z,99.99
2018-08-11T02:09:46.931Z,99.99
2018-08-11T02:10:46.998Z,99.99
2018-08-11T02:11:47.054Z,99.99
2018-08-11T02:12:47.119Z,99.99
2018-08-11T02:13:47.182Z,99.99
2018-08-11T02:14:47.267Z,99.99
2018-08-11T02:15:47.315Z,99.53
2018-08-11T02:16:47.380Z,99.99
2018-08-11T02:17:47.446Z,99.99
2018-08-11T02:18:47.507Z,99.99
2018-08-11T02:19:47.583Z,99.99
2018-08-11T02:20:47.643Z,99.99
2018-08-11T02:21:47.703Z,99.99
2018-08-11T02:22:47.775Z,99.99
2018-08-11T02:23:47.831Z,99.99
2018-08-11T02:24:47.994Z,99.99
2018-08-11T02:25:47.967Z,99.99
2018-08-11T02:26:48.028Z,99.99
2018-08-11T02:27:48.091Z,99.99
2018-08-11T02:28:48.159Z,99.99
2018-08-11T02:29:48.235Z,99.99
2018-08-11T02:30:48.283Z,99.99
2018-08-11T02:31:48.352Z,99.99
2018-08-11T02:32:48.412Z,99.99
2018-08-11T02:33:48.478Z,99.99
2018-08-11T02:34:48.557Z,99.99
2018-08-11T02:35:48.611Z,99.99
2018-08-11T02:36:48.667Z,99.99
2018-08-11T02:37:48.740Z,99.99
2018-08-11T02:38:48.799Z,99.99
2018-08-11T02:39:48.876Z,99.99
2018-08-11T02:40:48.939Z,99.99
2018-08-11T02:41:48.992Z,99.99
2018-08-11T02:42:49.061Z,99.99
2018-08-11T02:43:49.124Z,99.99
2018-08-11T02:44:49.199Z,99.99
2018-08-11T02:45:49.268Z,99.99
2018-08-11T02:46:49.320Z,99.99
2018-08-11T02:47:49.380Z,99.99
2018-08-11T02:48:49.443Z,99.99
2018-08-11T02:49:49.512Z,99.99
2018-08-11T02:50:49.580Z,99.99
2018-08-11T02:51:49.644Z,99.99
2018-08-11T02:52:49.715Z,99.99
2018-08-11T02:53:49.768Z,99.99
2018-08-11T02:54:49.831Z,99.99
2018-08-11T02:55:49.904Z,99.99
2018-08-11T02:56:49.972Z,99.99
2018-08-11T02:57:50.024Z,99.99
2018-08-11T02:58:50.092Z,99.99
2018-08-11T02:59:50.152Z,99.99
2018-08-11T03:00:50.224Z,99.99
2018-08-11T03:01:50.296Z,99.99
2018-08-11T03:02:50.348Z,99.99
2018-08-11T03:03:50.414Z,99.99
2018-08-11T03:04:50.476Z,99.99
2018-08-11T03:05:50.544Z,99.99
2018-08-11T03:06:50.612Z,99.99
2018-08-11T03:07:50.681Z,99.99
2018-08-11T03:08:50.733Z,99.99
2018-08-11T03:09:50.801Z,99.99
2018-08-11T03:10:50.864Z,99.99
2018-08-11T03:11:50.934Z,99.99
2018-08-11T03:12:50.996Z,99.99
2018-08-11T03:13:51.060Z,99.99
2018-08-11T03:14:51.121Z,99.99
2018-08-11T03:15:51.189Z,99.99
2018-08-11T03:16:51.249Z,99.99
2018-08-11T03:17:51.337Z,99.99
2018-08-11T03:18:51.378Z,99.99
2018-08-11T03:19:51.446Z,99.99
2018-08-11T03:20:51.505Z,99.99
2018-08-11T03:21:51.573Z,99.99
2018-08-11T03:22:51.645Z,99.99
2018-08-11T03:23:51.706Z,99.99
2018-08-11T03:24:51.766Z,99.99
2018-08-11T03:25:51.830Z,99.99
2018-08-11T03:26:51.893Z,99.99
2018-08-11T03:27:51.965Z,99.99
2018-08-11T03:28:52.029Z,99.99
2018-08-11T03:29:52.085Z,99.99
2018-08-11T03:30:52.195Z,99.99
2018-08-11T03:31:52.216Z,99.99
2018-08-11T03:32:52.593Z,99.99
2018-08-11T03:33:52.341Z,99.99
2018-08-11T03:34:52.409Z,99.99
2018-08-11T03:35:52.469Z,99.99
2018-08-11T03:36:52.533Z,99.99
2018-08-11T03:37:52.605Z,99.99
2018-08-11T03:38:52.669Z,99.99
2018-08-11T03:39:52.729Z,99.99
2018-08-11T03:40:52.794Z,99.99
2018-08-11T03:41:52.857Z,99.99
2018-08-11T03:42:52.929Z,99.99
2018-08-11T03:43:52.989Z,99.99
2018-08-11T03:44:53.055Z,99.99
2018-08-11T03:45:53.121Z,99.99
2018-08-11T03:46:53.178Z,99.99
2018-08-11T03:47:53.261Z,99.99
2018-08-11T03:48:53.305Z,99.99
2018-08-11T03:49:53.369Z,99.99
2018-08-11T03:50:53.433Z,99.99
2018-08-11T03:51:53.497Z,99.99
2018-08-11T03:52:53.570Z,99.99
2018-08-11T03:53:53.634Z,99.99
2018-08-11T03:54:53.694Z,99.99
2018-08-11T03:55:53.754Z,99.99
2018-08-11T03:56:53.817Z,99.99
2018-08-11T03:57:53.890Z,99.99
2018-08-11T03:58:53.953Z,99.99
2018-08-11T03:59:54.010Z,99.99
2018-08-11T04:00:54.078Z,99.99
2018-08-11T04:01:54.142Z,99.99
2018-08-11T04:02:54.222Z,99.99
2018-08-11T04:03:54.270Z,99.99
2018-08-11T04:04:54.334Z,99.99
2018-08-11T04:05:54.398Z,99.99
2018-08-11T04:06:54.464Z,99.99
2018-08-11T04:07:54.530Z,99.99
2018-08-11T04:08:54.594Z,99.99
2018-08-11T04:09:54.654Z,99.99
2018-08-11T04:10:54.719Z,99.99
2018-08-11T04:11:54.782Z,99.99
2018-08-11T04:12:54.850Z,99.99
2018-08-11T04:13:54.922Z,99.99
2018-08-11T04:14:54.978Z,99.99
2018-08-11T04:15:55.039Z,99.99
2018-08-11T04:16:55.103Z,99.99
2018-08-11T04:17:55.514Z,99.99
2018-08-11T04:18:55.234Z,99.99
2018-08-11T04:19:55.295Z,99.99
2018-08-11T04:20:55.362Z,99.99
2018-08-11T04:21:55.422Z,99.99
2018-08-11T04:22:55.509Z,99.99
2018-08-11T04:23:55.702Z,99.99
2018-08-11T04:24:55.614Z,99.99
2018-08-11T04:25:55.679Z,99.99
2018-08-11T04:26:55.742Z,99.99
2018-08-11T04:27:55.807Z,99.99
2018-08-11T04:28:55.883Z,99.99
2018-08-11T04:29:55.946Z,99.99
2018-08-11T04:30:55.999Z,99.99
2018-08-11T04:31:56.063Z,99.99
2018-08-11T04:32:56.127Z,99.99
2018-08-11T04:33:56.191Z,99.99
2018-08-11T04:34:56.272Z,99.99
2018-08-11T04:35:56.319Z,99.99
2018-08-11T04:36:56.387Z,99.99
2018-08-11T04:37:56.447Z,99.99
2018-08-11T04:38:56.515Z,99.99
2018-08-11T04:39:56.583Z,99.99
2018-08-11T04:40:56.647Z,99.99
2018-08-11T04:41:56.719Z,99.99
2018-08-11T04:42:56.771Z,99.99
2018-08-11T04:43:56.839Z,99.99
2018-08-11T04:44:56.903Z,99.99
2018-08-11T04:45:56.967Z,99.99
2018-08-11T04:46:57.031Z,99.99
2018-08-11T04:47:57.093Z,99.99
2018-08-11T04:48:57.160Z,99.99
2018-08-11T04:49:57.327Z,99.99
2018-08-11T04:50:57.284Z,99.99
2018-08-11T04:51:57.348Z,99.99
2018-08-11T04:52:57.412Z,99.99
2018-08-11T04:53:57.475Z,99.99
2018-08-11T04:54:57.548Z,99.99
2018-08-11T04:55:57.616Z,99.99
2018-08-11T04:56:57.669Z,99.99
2018-08-11T04:57:57.732Z,99.99
2018-08-11T04:58:57.802Z,99.99
2018-08-11T04:59:57.872Z,99.99
2018-08-11T05:00:57.932Z,99.99
2018-08-11T05:01:57.992Z,99.99
2018-08-11T05:02:58.053Z,99.99
2018-08-11T05:03:58.120Z,99.99
2018-08-11T05:04:58.201Z,99.99
2018-08-11T05:05:58.248Z,99.99
2018-08-11T05:06:58.312Z,99.99
2018-08-11T05:07:58.376Z,99.99
2018-08-11T05:08:58.442Z,99.99
2018-08-11T05:09:58.516Z,99.99
2018-08-11T05:10:58.577Z,99.99
2018-08-11T05:11:58.636Z,99.99
2018-08-11T05:12:58.701Z,99.99
2018-08-11T05:13:58.764Z,99.99
2018-08-11T05:14:58.837Z,99.99
2018-08-11T05:15:58.896Z,99.99
2018-08-11T05:16:58.966Z,99.99
2018-08-11T05:17:59.021Z,99.99
2018-08-11T05:18:59.085Z,99.99
2018-08-11T05:19:59.216Z,99.99
2018-08-11T05:20:59.365Z,99.99
2018-08-11T05:21:59.281Z,99.99
2018-08-11T05:22:59.345Z,99.99
2018-08-11T05:23:59.409Z,99.99
2018-08-11T05:24:59.473Z,99.99
2018-08-11T05:25:59.545Z,99.99
2018-08-11T05:26:59.611Z,99.99
2018-08-11T05:27:59.670Z,99.99
2018-08-11T05:28:59.729Z,99.99
2018-08-11T05:29:59.801Z,99.99
2018-08-11T05:30:59.869Z,99.99
2018-08-11T05:31:59.929Z,99.99
2018-08-11T05:32:59.990Z,99.99
2018-08-11T05:34:00.057Z,99.99
2018-08-11T05:35:00.118Z,99.99
2018-08-11T05:36:00.345Z,99.99
2018-08-11T05:37:00.250Z,99.99
2018-08-11T05:38:00.314Z,99.99
2018-08-11T05:39:00.378Z,99.99
2018-08-11T05:40:00.442Z,99.99
2018-08-11T05:41:00.516Z,99.99
2018-08-11T05:42:00.578Z,99.99
2018-08-11T05:43:00.641Z,99.99
2018-08-11T05:44:00.702Z,99.99
2018-08-11T05:45:00.766Z,99.99
2018-08-11T05:46:00.838Z,99.99
2018-08-11T05:47:00.905Z,99.99
2018-08-11T05:48:00.958Z,99.99
2018-08-11T05:49:01.026Z,99.99
2018-08-11T05:50:01.090Z,99.99
2018-08-11T05:51:01.170Z,99.99
2018-08-11T05:52:01.222Z,99.99
2018-08-11T05:53:01.287Z,99.99
2018-08-11T05:54:01.350Z,99.99
2018-08-11T05:55:01.425Z,99.99
2018-08-11T05:56:01.486Z,99.99
2018-08-11T05:57:01.550Z,99.99
2018-08-11T05:58:01.606Z,99.99
2018-08-11T05:59:01.674Z,99.99
2018-08-11T06:00:01.739Z,99.99
2018-08-11T06:01:01.811Z,99.99
2018-08-11T06:02:01.875Z,99.99
2018-08-11T06:03:01.934Z,99.99
2018-08-11T06:04:02.017Z,99.99
2018-08-11T06:05:02.067Z,99.99
2018-08-11T06:06:02.143Z,99.99
2018-08-11T06:07:02.194Z,99.99
2018-08-11T06:08:02.254Z,99.99
2018-08-11T06:09:02.327Z,99.99
2018-08-11T06:10:02.387Z,99.99
2018-08-11T06:11:02.476Z,99.99
2018-08-11T06:12:02.523Z,99.99
2018-08-11T06:13:02.579Z,99.99
2018-08-11T06:14:02.647Z,99.99
2018-08-11T06:15:02.714Z,99.99
2018-08-11T06:16:02.783Z,99.99
2018-08-11T06:17:02.847Z,99.99
2018-08-11T06:18:02.912Z,99.99
2018-08-11T06:19:02.971Z,99.99
2018-08-11T06:20:03.035Z,99.99
2018-08-11T06:21:03.157Z,99.99
2018-08-11T06:22:03.168Z,99.99
2018-08-11T06:23:03.231Z,99.77
2018-08-11T06:24:03.296Z,99.99
2018-08-11T06:25:03.360Z,99.77
2018-08-11T06:26:03.438Z,99.49
2018-08-11T06:27:03.495Z,99.96
2018-08-11T06:28:03.555Z,99.77
2018-08-11T06:29:03.619Z,99.96
2018-08-11T06:30:03.687Z,99.39
2018-08-11T06:31:03.759Z,98.96
2018-08-11T06:32:03.831Z,98.19
2018-08-11T06:33:03.889Z,98.29
2018-08-11T06:34:03.948Z,96.66
2018-08-11T06:35:04.008Z,97.33
2018-08-11T06:36:04.103Z,97.24
2018-08-11T06:37:04.144Z,96.37
2018-08-11T06:38:04.208Z,97.09
2018-08-11T06:39:04.272Z,97.61
2018-08-11T06:40:04.338Z,98.43
2018-08-11T06:41:04.540Z,97.76
2018-08-11T06:42:04.476Z,98.72
2018-08-11T06:43:04.537Z,98.62
2018-08-11T06:44:04.602Z,98.91
2018-08-11T06:45:04.667Z,98.53
2018-08-11T06:46:04.740Z,98.24
2018-08-11T06:47:04.832Z,98.24
2018-08-11T06:48:04.860Z,97.52
2018-08-11T06:49:04.924Z,96.37
2018-08-11T06:50:04.992Z,95.60
2018-08-11T06:51:05.065Z,94.64
2018-08-11T06:52:05.128Z,94.11
2018-08-11T06:53:05.188Z,94.40
2018-08-11T06:54:05.253Z,95.26
2018-08-11T06:55:05.317Z,94.11
2018-08-11T06:56:05.388Z,94.07
2018-08-11T06:57:05.460Z,93.25
2018-08-11T06:58:05.517Z,91.71
2018-08-11T06:59:05.580Z,88.87
2018-08-11T07:00:05.645Z,85.64
2018-08-11T07:01:05.717Z,83.18
2018-08-11T07:02:05.784Z,82.85
2018-08-11T07:03:05.845Z,83.33
2018-08-11T07:04:05.980Z,83.72
2018-08-11T07:05:05.977Z,82.75
2018-08-11T07:06:06.049Z,83.62
2018-08-11T07:07:06.204Z,83.72
2018-08-11T07:08:06.175Z,83.62
2018-08-11T07:09:06.241Z,80.19
2018-08-11T07:10:06.313Z,78.08
2018-08-11T07:11:06.533Z,75.13
2018-08-11T07:12:06.441Z,74.30
2018-08-11T07:13:06.512Z,75.76
2018-08-11T07:14:06.577Z,75.71
2018-08-11T07:15:06.671Z,74.14
2018-08-11T07:16:06.717Z,72.69
2018-08-11T07:17:06.785Z,70.36
2018-08-11T07:18:06.850Z,68.36
2018-08-11T07:19:06.917Z,68.10
2018-08-11T07:20:06.985Z,66.94
2018-08-11T07:21:07.065Z,65.66
2018-08-11T07:22:07.157Z,62.14
2018-08-11T07:23:07.198Z,61.98
2018-08-11T07:24:07.265Z,63.46
2018-08-11T07:25:07.337Z,63.08
2018-08-11T07:26:07.417Z,62.79
2018-08-11T07:27:07.489Z,62.21
2018-08-11T07:28:07.550Z,62.50
2018-08-11T07:29:07.622Z,59.82
2018-08-11T07:30:07.716Z,59.42
2018-08-11T07:31:07.770Z,56.85
2018-08-11T07:32:07.842Z,57.87
2018-08-11T07:33:07.909Z,55.69
2018-08-11T07:34:07.982Z,54.14
2018-08-11T07:35:08.058Z,53.78
2018-08-11T07:36:08.301Z,52.55
2018-08-11T07:37:08.202Z,52.98
2018-08-11T07:38:08.278Z,52.03
2018-08-11T07:39:08.350Z,53.53
2018-08-11T07:40:08.426Z,53.85
2018-08-11T07:41:08.510Z,54.33
2018-08-11T07:42:08.582Z,56.18
2018-08-11T07:43:08.646Z,56.88
2018-08-11T07:44:08.728Z,56.93
2018-08-11T07:45:08.799Z,58.06
2018-08-11T07:46:08.875Z,57.18
2018-08-11T07:47:08.947Z,54.55
2018-08-11T07:48:09.015Z,53.24
2018-08-11T07:49:09.090Z,51.72
2018-08-11T07:50:09.194Z,50.48
2018-08-11T07:51:09.351Z,51.06
2018-08-11T07:52:09.311Z,50.65
2018-08-11T07:53:09.387Z,49.92
2018-08-11T07:54:09.463Z,50.74
2018-08-11T07:55:09.543Z,53.79
2018-08-11T07:56:09.615Z,52.85
2018-08-11T07:57:09.691Z,54.27
2018-08-11T07:58:09.760Z,55.05
2018-08-11T07:59:09.831Z,54.30
2018-08-11T08:00:09.903Z,53.89
2018-08-11T08:01:09.996Z,55.51
2018-08-11T08:02:10.055Z,56.09
2018-08-11T08:03:10.124Z,55.73
2018-08-11T08:04:10.195Z,54.66
2018-08-11T08:05:10.268Z,54.55
2018-08-11T08:06:10.508Z,55.35
2018-08-11T08:07:10.412Z,54.63
2018-08-11T08:08:10.484Z,54.52
2018-08-11T08:09:10.584Z,51.96
2018-08-11T08:10:10.647Z,50.16
2018-08-11T08:11:10.716Z,49.15
2018-08-11T08:12:10.784Z,48.20
2018-08-11T08:13:10.852Z,46.96
2018-08-11T08:14:10.928Z,47.27
2018-08-11T08:15:11.040Z,46.81
2018-08-11T08:16:11.432Z,48.88
2018-08-11T08:17:11.152Z,49.37
2018-08-11T08:18:11.224Z,52.89
2018-08-11T08:19:11.300Z,54.10
2018-08-11T08:20:11.372Z,56.07
2018-08-11T08:21:11.452Z,56.54
2018-08-11T08:22:11.529Z,53.50
2018-08-11T08:23:11.588Z,51.81
2018-08-11T08:24:11.664Z,50.24
2018-08-11T08:25:11.737Z,49.41
2018-08-11T08:26:11.909Z,47.79
2018-08-11T08:27:11.889Z,48.20
2018-08-11T08:28:11.957Z,46.89
2018-08-11T08:29:12.033Z,45.84
2018-08-11T08:30:12.105Z,45.38
2018-08-11T08:31:12.180Z,44.82
2018-08-11T08:32:12.456Z,44.82
2018-08-11T08:33:12.325Z,42.90
2018-08-11T08:34:12.401Z,41.86
2018-08-11T08:35:12.484Z,40.03
2018-08-11T08:36:12.548Z,37.60
2018-08-11T08:37:12.633Z,39.08
2018-08-11T08:38:12.708Z,38.85
2018-08-11T08:39:12.780Z,40.62
2018-08-11T08:40:12.857Z,42.43
2018-08-11T08:41:12.929Z,41.57
2018-08-11T08:42:13.009Z,42.05
2018-08-11T08:43:13.097Z,41.30
2018-08-11T08:44:13.157Z,40.23
2018-08-11T08:45:13.229Z,40.54
2018-08-11T08:46:13.306Z,41.96
2018-08-11T08:47:13.386Z,41.88
2018-08-11T08:48:13.465Z,41.94
2018-08-11T08:49:13.529Z,42.67
2018-08-11T08:50:13.610Z,45.61
2018-08-11T08:51:13.681Z,46.53
2018-08-11T08:52:13.761Z,48.20
2018-08-11T08:53:13.845Z,46.82
2018-08-11T08:54:13.902Z,44.44
2018-08-11T08:55:13.982Z,41.96
2018-08-11T08:56:14.060Z,40.81
2018-08-11T08:57:14.138Z,40.75
2018-08-11T08:58:14.198Z,39.69
2018-08-11T08:59:14.274Z,39.90
2018-08-11T09:00:14.346Z,39.43
2018-08-11T09:01:14.424Z,40.29
2018-08-11T09:02:14.498Z,39.43
2018-08-11T09:03:14.578Z,39.41
2018-08-11T09:04:14.646Z,39.80
2018-08-11T09:05:14.722Z,39.80
2018-08-11T09:06:14.794Z,41.84
2018-08-11T09:07:14.882Z,40.52
2018-08-11T09:08:14.950Z,39.57
2018-08-11T09:09:15.018Z,38.91
2018-08-11T09:10:15.095Z,38.42
2018-08-11T09:11:15.169Z,39.04
2018-08-11T09:12:15.418Z,41.43
2018-08-11T09:13:15.310Z,41.63
2018-08-11T09:14:15.390Z,42.36
2018-08-11T09:15:15.466Z,43.45
2018-08-11T09:16:15.538Z,42.85
2018-08-11T09:17:15.618Z,41.97
2018-08-11T09:18:15.740Z,41.70
2018-08-11T09:19:15.762Z,39.78
2018-08-11T09:20:15.835Z,39.61
2018-08-11T09:21:15.907Z,39.75
2018-08-11T09:22:15.986Z,38.89
2018-08-11T09:23:16.059Z,37.93
2018-08-11T09:24:16.134Z,38.57
2018-08-11T09:25:16.198Z,39.96
2018-08-11T09:26:16.274Z,39.86
2018-08-11T09:27:16.371Z,39.37
2018-08-11T09:28:16.418Z,39.57
2018-08-11T09:29:16.562Z,39.59
2018-08-11T09:30:16.571Z,38.42
2018-08-11T09:31:16.644Z,38.17
2018-08-11T09:32:16.727Z,39.80
2018-08-11T09:33:16.795Z,41.86
2018-08-11T09:34:16.862Z,41.47
2018-08-11T09:35:16.950Z,40.13
2018-08-11T09:36:17.011Z,40.93
2018-08-11T09:37:17.103Z,39.00
2018-08-11T09:38:17.189Z,38.42
2018-08-11T09:39:17.234Z,38.42
2018-08-11T09:40:17.302Z,38.42
2018-08-11T09:41:17.379Z,38.70
2018-08-11T09:42:17.774Z,38.31
2018-08-11T09:43:17.531Z,37.62
2018-08-11T09:44:17.599Z,37.35
2018-08-11T09:45:17.670Z,36.40
2018-08-11T09:46:17.747Z,37.41
2018-08-11T09:47:17.827Z,38.85
2018-08-11T09:48:17.900Z,38.96
2018-08-11T09:49:17.967Z,39.51
2018-08-11T09:50:18.039Z,40.19
2018-08-11T09:51:18.111Z,40.26
2018-08-11T09:52:18.284Z,42.07
2018-08-11T09:53:18.265Z,43.55
2018-08-11T09:54:18.335Z,44.54
2018-08-11T09:55:18.403Z,45.88
2018-08-11T09:56:18.475Z,44.70
2018-08-11T09:57:18.563Z,45.04
2018-08-11T09:58:18.627Z,45.72
2018-08-11T09:59:18.697Z,45.74
2018-08-11T10:00:18.773Z,45.37
2018-08-11T10:01:18.835Z,45.22
2018-08-11T10:02:18.915Z,45.18
2018-08-11T10:03:18.999Z,46.63
2018-08-11T10:04:19.051Z,47.77
2018-08-11T10:05:19.120Z,47.55
2018-08-11T10:06:19.187Z,48.49
2018-08-11T10:07:19.407Z,50.11
2018-08-11T10:08:19.332Z,50.79
2018-08-11T10:09:19.399Z,49.95
2018-08-11T10:10:19.471Z,49.10
2018-08-11T10:11:19.540Z,49.34
2018-08-11T10:12:19.620Z,48.22
2018-08-11T10:13:19.707Z,45.25
2018-08-11T10:14:19.752Z,43.23
2018-08-11T10:15:19.823Z,43.31
2018-08-11T10:16:19.894Z,43.65
2018-08-11T10:17:19.968Z,44.40
2018-08-11T10:18:20.053Z,46.61
2018-08-11T10:19:20.104Z,47.74
2018-08-11T10:20:20.179Z,48.39
2018-08-11T10:21:20.240Z,48.86
2018-08-11T10:22:20.465Z,49.53
2018-08-11T10:23:20.588Z,50.31
2018-08-11T10:24:20.451Z,50.38
2018-08-11T10:25:20.521Z,50.57
2018-08-11T10:26:20.592Z,52.47
2018-08-11T10:27:20.668Z,52.33
2018-08-11T10:28:20.736Z,51.71
2018-08-11T10:29:20.796Z,50.31
2018-08-11T10:30:20.868Z,48.27
2018-08-11T10:31:20.936Z,49.56
2018-08-11T10:32:21.012Z,47.67
2018-08-11T10:33:21.081Z,46.97
2018-08-11T10:34:21.144Z,47.24
2018-08-11T10:35:21.218Z,47.89
2018-08-11T10:36:21.280Z,49.82
2018-08-11T10:37:21.357Z,49.92
2018-08-11T10:38:21.438Z,50.40
2018-08-11T10:39:21.489Z,49.07
2018-08-11T10:40:21.644Z,47.65
2018-08-11T10:41:21.632Z,47.21
2018-08-11T10:42:21.705Z,44.40
2018-08-11T10:43:21.773Z,43.00
2018-08-11T10:44:21.834Z,42.24
2018-08-11T10:45:21.909Z,41.89
2018-08-11T10:46:21.973Z,38.52
2018-08-11T10:47:22.049Z,37.86
2018-08-11T10:48:22.117Z,37.28
2018-08-11T10:49:22.182Z,37.98
2018-08-11T10:50:22.250Z,37.26
2018-08-11T10:51:22.324Z,38.50
2018-08-11T10:52:22.549Z,38.60
2018-08-11T10:53:22.457Z,39.59
2018-08-11T10:54:22.529Z,39.59
2018-08-11T10:55:22.599Z,39.29
2018-08-11T10:56:22.666Z,39.45
2018-08-11T10:57:22.743Z,41.27
2018-08-11T10:58:22.810Z,40.91
2018-08-11T10:59:22.874Z,40.92
2018-08-11T11:00:22.950Z,39.59
2018-08-11T11:01:23.041Z,39.59
2018-08-11T11:02:23.429Z,39.76
2018-08-11T11:03:23.154Z,39.67
2018-08-11T11:04:23.222Z,39.53
2018-08-11T11:05:23.290Z,39.97
2018-08-11T11:06:23.362Z,41.50
2018-08-11T11:07:23.434Z,42.45
2018-08-11T11:08:23.724Z,43.98
2018-08-11T11:09:23.570Z,44.46
2018-08-11T11:10:23.638Z,43.59
2018-08-11T11:11:23.706Z,43.99
2018-08-11T11:12:23.776Z,43.98
2018-08-11T11:13:23.854Z,43.76
2018-08-11T11:14:23.985Z,44.34
2018-08-11T11:15:23.985Z,44.51
2018-08-11T11:16:24.050Z,44.24
2018-08-11T11:17:24.122Z,43.76
2018-08-11T11:18:24.303Z,43.88
2018-08-11T11:19:24.258Z,43.32
2018-08-11T11:20:24.326Z,43.34
2018-08-11T11:21:24.399Z,42.55
2018-08-11T11:22:24.467Z,42.93
2018-08-11T11:23:24.545Z,44.02
2018-08-11T11:24:24.619Z,42.49
2018-08-11T11:25:24.671Z,41.91
2018-08-11T11:26:24.744Z,41.60
2018-08-11T11:27:24.811Z,41.39
2018-08-11T11:28:24.895Z,40.32
2018-08-11T11:29:24.965Z,40.61
2018-08-11T11:30:25.015Z,41.79
2018-08-11T11:31:25.087Z,42.08
2018-08-11T11:32:25.159Z,42.47
2018-08-11T11:33:25.227Z,41.42
2018-08-11T11:34:25.311Z,40.75
2018-08-11T11:35:25.359Z,40.36
2018-08-11T11:36:25.459Z,41.24
2018-08-11T11:37:25.499Z,41.86
2018-08-11T11:38:25.569Z,40.21
2018-08-11T11:39:25.651Z,39.53
2018-08-11T11:40:25.711Z,39.65
2018-08-11T11:41:25.771Z,38.70
2018-08-11T11:42:25.843Z,38.96
2018-08-11T11:43:25.932Z,38.70
2018-08-11T11:44:25.987Z,38.02
2018-08-11T11:45:26.060Z,38.21
2018-08-11T11:46:26.119Z,38.50
2018-08-11T11:47:26.191Z,38.02
2018-08-11T11:48:26.255Z,37.63
2018-08-11T11:49:26.443Z,37.15
2018-08-11T11:50:26.395Z,38.32
2018-08-11T11:51:26.467Z,37.65
2018-08-11T11:52:26.531Z,38.31
2018-08-11T11:53:26.605Z,38.79
2018-08-11T11:54:26.679Z,38.50
2018-08-11T11:55:26.747Z,39.49
2018-08-11T11:56:26.815Z,39.01
2018-08-11T11:57:26.879Z,37.53
2018-08-11T11:58:26.947Z,38.70
2018-08-11T11:59:27.031Z,39.76
2018-08-11T12:00:27.096Z,38.62
2018-08-11T12:01:27.156Z,38.04
2018-08-11T12:02:27.232Z,37.84
2018-08-11T12:03:27.296Z,38.50
2018-08-11T12:04:27.376Z,39.11
2018-08-11T12:05:27.443Z,37.65
2018-08-11T12:06:27.500Z,38.04
2018-08-11T12:07:27.576Z,38.54
2018-08-11T12:08:27.684Z,37.47
2018-08-11T12:09:27.720Z,34.83
2018-08-11T12:10:28.540Z,35.41
2018-08-11T12:11:27.852Z,35.51
2018-08-11T12:12:27.928Z,35.82
2018-08-11T12:13:27.992Z,35.51
2018-08-11T12:14:28.148Z,35.41
2018-08-11T12:15:28.184Z,37.55
2018-08-11T12:16:28.200Z,37.45
2018-08-11T12:17:28.344Z,37.16
2018-08-11T12:18:28.340Z,37.84
2018-08-11T12:19:28.458Z,38.04
2018-08-11T12:20:28.526Z,37.65
2018-08-11T12:21:28.552Z,37.65
2018-08-11T12:22:28.625Z,38.00
2018-08-11T12:23:28.692Z,39.37
2018-08-11T12:24:28.833Z,38.79
2018-08-11T12:25:28.836Z,37.53
2018-08-11T12:26:28.904Z,38.50
2018-08-11T12:27:28.968Z,36.79
2018-08-11T12:28:29.045Z,37.47
2018-08-11T12:29:29.124Z,37.30
2018-08-11T12:30:29.197Z,37.02
2018-08-11T12:31:29.249Z,35.88
2018-08-11T12:32:29.349Z,35.19
2018-08-11T12:33:29.388Z,35.19
2018-08-11T12:34:30.177Z,36.46
2018-08-11T12:35:29.536Z,35.97
2018-08-11T12:36:29.596Z,34.40
2018-08-11T12:37:29.681Z,34.48
2018-08-11T12:38:29.749Z,34.95
2018-08-11T12:39:29.825Z,35.92
2018-08-11T12:40:29.884Z,36.42
2018-08-11T12:41:29.950Z,36.22
2018-08-11T12:42:30.021Z,34.85
2018-08-11T12:43:30.089Z,35.92
2018-08-11T12:44:30.504Z,35.25
2018-08-11T12:45:30.246Z,34.09
2018-08-11T12:46:30.301Z,34.69
2018-08-11T12:47:30.376Z,35.17
2018-08-11T12:48:30.442Z,35.57
2018-08-11T12:49:30.529Z,33.64
2018-08-11T12:50:30.588Z,31.87
2018-08-11T12:51:30.649Z,33.67
2018-08-11T12:52:30.722Z,36.64
2018-08-11T12:53:30.824Z,37.69